sensor_id;sensor_type;location;lat;lon;timestamp;P1;durP1;ratioP1;P2;durP2;ratioP2
16179;SDS011;8196;49.428;10.906;2022-08-05T00:00:46;4.07;;;3.55;;
16179;SDS011;8196;49.428;10.906;2022-08-05T00:03:15;3.80;;;3.40;;
16179;SDS011;8196;49.428;10.906;2022-08-05T00:05:42;3.70;;;3.40;;
16179;SDS011;8196;49.428;10.906;2022-08-05T00:08:29;4.70;;;3.53;;
16179;SDS011;8196;49.428;10.906;2022-08-05T00:11:03;4.15;;;3.10;;
16179;SDS011;8196;49.428;10.906;2022-08-05T00:13:46;3.85;;;3.50;;
16179;SDS011;8196;49.428;10.906;2022-08-05T00:16:18;4.53;;;3.65;;
16179;SDS011;8196;49.428;10.906;2022-08-05T00:19:06;4.53;;;3.63;;
16179;SDS011;8196;49.428;10.906;2022-08-05T00:21:33;4.78;;;3.88;;
16179;SDS011;8196;49.428;10.906;2022-08-05T00:24:01;7.00;;;3.83;;
16179;SDS011;8196;49.428;10.906;2022-08-05T00:26:36;4.90;;;3.63;;
16179;SDS011;8196;49.428;10.906;2022-08-05T00:29:03;3.85;;;3.40;;
16179;SDS011;8196;49.428;10.906;2022-08-05T00:31:30;4.47;;;3.60;;
16179;SDS011;8196;49.428;10.906;2022-08-05T00:34:16;4.60;;;3.30;;
16179;SDS011;8196;49.428;10.906;2022-08-05T00:37:03;3.97;;;3.58;;
16179;SDS011;8196;49.428;10.906;2022-08-05T00:39:39;3.80;;;3.50;;
16179;SDS011;8196;49.428;10.906;2022-08-05T00:42:30;4.03;;;3.35;;
16179;SDS011;8196;49.428;10.906;2022-08-05T00:44:59;5.72;;;3.55;;
16179;SDS011;8196;49.428;10.906;2022-08-05T00:47:27;4.57;;;3.65;;
16179;SDS011;8196;49.428;10.906;2022-08-05T00:50:14;4.00;;;3.58;;
16179;SDS011;8196;49.428;10.906;2022-08-05T00:52:41;5.95;;;3.65;;
16179;SDS011;8196;49.428;10.906;2022-08-05T00:55:11;5.25;;;3.60;;
16179;SDS011;8196;49.428;10.906;2022-08-05T00:57:40;3.70;;;3.40;;
16179;SDS011;8196;49.428;10.906;2022-08-05T01:00:24;4.00;;;3.63;;
16179;SDS011;8196;49.428;10.906;2022-08-05T01:02:53;5.07;;;3.72;;
16179;SDS011;8196;49.428;10.906;2022-08-05T01:05:21;4.20;;;3.63;;
16179;SDS011;8196;49.428;10.906;2022-08-05T01:07:48;4.18;;;3.40;;
16179;SDS011;8196;49.428;10.906;2022-08-05T01:10:43;3.87;;;3.57;;
16179;SDS011;8196;49.428;10.906;2022-08-05T01:16:13;4.65;;;3.75;;
16179;SDS011;8196;49.428;10.906;2022-08-05T01:18:52;4.18;;;3.55;;
16179;SDS011;8196;49.428;10.906;2022-08-05T01:29:48;3.80;;;3.47;;
16179;SDS011;8196;49.428;10.906;2022-08-05T01:32:20;4.10;;;3.60;;
16179;SDS011;8196;49.428;10.906;2022-08-05T01:34:56;5.60;;;3.65;;
16179;SDS011;8196;49.428;10.906;2022-08-05T01:40:10;5.13;;;4.15;;
16179;SDS011;8196;49.428;10.906;2022-08-05T01:42:38;3.95;;;3.65;;
16179;SDS011;8196;49.428;10.906;2022-08-05T01:45:07;4.85;;;4.07;;
16179;SDS011;8196;49.428;10.906;2022-08-05T01:47:35;4.57;;;3.70;;
16179;SDS011;8196;49.428;10.906;2022-08-05T01:50:10;5.07;;;3.88;;
16179;SDS011;8196;49.428;10.906;2022-08-05T01:52:43;5.73;;;3.73;;
16179;SDS011;8196;49.428;10.906;2022-08-05T01:55:15;5.90;;;4.10;;
16179;SDS011;8196;49.428;10.906;2022-08-05T01:57:45;4.80;;;3.70;;
16179;SDS011;8196;49.428;10.906;2022-08-05T02:00:34;4.10;;;3.70;;
16179;SDS011;8196;49.428;10.906;2022-08-05T02:03:08;3.75;;;3.42;;
16179;SDS011;8196;49.428;10.906;2022-08-05T02:05:49;3.60;;;3.30;;
16179;SDS011;8196;49.428;10.906;2022-08-05T02:08:25;4.05;;;3.50;;
16179;SDS011;8196;49.428;10.906;2022-08-05T02:10:58;4.00;;;3.60;;
16179;SDS011;8196;49.428;10.906;2022-08-05T02:13:39;6.53;;;3.90;;
16179;SDS011;8196;49.428;10.906;2022-08-05T02:16:21;4.85;;;3.97;;
16179;SDS011;8196;49.428;10.906;2022-08-05T02:19:02;4.55;;;4.10;;
16179;SDS011;8196;49.428;10.906;2022-08-05T02:21:39;4.47;;;3.83;;
16179;SDS011;8196;49.428;10.906;2022-08-05T02:24:16;4.72;;;4.13;;
16179;SDS011;8196;49.428;10.906;2022-08-05T02:26:49;4.35;;;4.05;;
16179;SDS011;8196;49.428;10.906;2022-08-05T02:29:20;4.85;;;4.07;;
16179;SDS011;8196;49.428;10.906;2022-08-05T02:32:09;4.65;;;4.20;;
16179;SDS011;8196;49.428;10.906;2022-08-05T02:34:49;4.70;;;4.18;;
16179;SDS011;8196;49.428;10.906;2022-08-05T02:37:20;5.20;;;4.70;;
16179;SDS011;8196;49.428;10.906;2022-08-05T02:39:50;4.55;;;4.15;;
16179;SDS011;8196;49.428;10.906;2022-08-05T02:42:18;5.03;;;4.45;;
16179;SDS011;8196;49.428;10.906;2022-08-05T02:44:53;4.72;;;4.22;;
16179;SDS011;8196;49.428;10.906;2022-08-05T02:47:21;6.13;;;4.18;;
16179;SDS011;8196;49.428;10.906;2022-08-05T02:49:49;5.93;;;3.73;;
16179;SDS011;8196;49.428;10.906;2022-08-05T02:52:17;5.10;;;4.00;;
16179;SDS011;8196;49.428;10.906;2022-08-05T02:54:56;4.13;;;3.75;;
16179;SDS011;8196;49.428;10.906;2022-08-05T02:57:30;4.80;;;4.20;;
16179;SDS011;8196;49.428;10.906;2022-08-05T03:00:18;6.63;;;4.47;;
16179;SDS011;8196;49.428;10.906;2022-08-05T03:02:45;5.25;;;3.92;;
16179;SDS011;8196;49.428;10.906;2022-08-05T03:05:13;5.13;;;4.30;;
16179;SDS011;8196;49.428;10.906;2022-08-05T03:07:41;6.23;;;4.60;;
16179;SDS011;8196;49.428;10.906;2022-08-05T03:10:29;6.25;;;4.35;;
16179;SDS011;8196;49.428;10.906;2022-08-05T03:12:55;4.60;;;4.18;;
16179;SDS011;8196;49.428;10.906;2022-08-05T03:15:21;3.90;;;3.60;;
16179;SDS011;8196;49.428;10.906;2022-08-05T03:17:51;4.55;;;3.78;;
16179;SDS011;8196;49.428;10.906;2022-08-05T03:20:22;3.50;;;3.28;;
16179;SDS011;8196;49.428;10.906;2022-08-05T03:22:50;4.47;;;3.70;;
16179;SDS011;8196;49.428;10.906;2022-08-05T03:25:20;4.55;;;3.67;;
16179;SDS011;8196;49.428;10.906;2022-08-05T03:28:08;5.03;;;3.78;;
16179;SDS011;8196;49.428;10.906;2022-08-05T03:30:39;4.78;;;4.00;;
16179;SDS011;8196;49.428;10.906;2022-08-05T03:33:07;4.65;;;4.25;;
16179;SDS011;8196;49.428;10.906;2022-08-05T03:35:34;4.20;;;3.80;;
16179;SDS011;8196;49.428;10.906;2022-08-05T03:38:07;4.20;;;3.80;;
16179;SDS011;8196;49.428;10.906;2022-08-05T03:40:40;3.87;;;3.57;;
16179;SDS011;8196;49.428;10.906;2022-08-05T03:43:12;5.00;;;3.88;;
16179;SDS011;8196;49.428;10.906;2022-08-05T03:45:59;4.63;;;4.13;;
16179;SDS011;8196;49.428;10.906;2022-08-05T03:48:27;5.65;;;4.30;;
16179;SDS011;8196;49.428;10.906;2022-08-05T03:54:02;5.00;;;4.28;;
16179;SDS011;8196;49.428;10.906;2022-08-05T03:56:53;4.47;;;4.07;;
16179;SDS011;8196;49.428;10.906;2022-08-05T03:59:30;4.13;;;3.83;;
16179;SDS011;8196;49.428;10.906;2022-08-05T04:02:12;5.53;;;4.35;;
16179;SDS011;8196;49.428;10.906;2022-08-05T04:05:02;4.95;;;4.45;;
16179;SDS011;8196;49.428;10.906;2022-08-05T04:07:35;5.47;;;4.05;;
16179;SDS011;8196;49.428;10.906;2022-08-05T04:10:24;4.60;;;4.20;;
16179;SDS011;8196;49.428;10.906;2022-08-05T04:12:53;4.63;;;4.25;;
16179;SDS011;8196;49.428;10.906;2022-08-05T04:15:24;4.55;;;4.15;;
16179;SDS011;8196;49.428;10.906;2022-08-05T04:17:59;5.20;;;4.70;;
16179;SDS011;8196;49.428;10.906;2022-08-05T04:20:32;5.43;;;4.40;;
16179;SDS011;8196;49.428;10.906;2022-08-05T04:22:59;4.30;;;3.90;;
16179;SDS011;8196;49.428;10.906;2022-08-05T04:25:26;4.45;;;4.05;;
16179;SDS011;8196;49.428;10.906;2022-08-05T04:28:13;4.75;;;4.00;;
16179;SDS011;8196;49.428;10.906;2022-08-05T04:30:42;6.72;;;4.18;;
16179;SDS011;8196;49.428;10.906;2022-08-05T04:33:10;5.13;;;4.10;;
16179;SDS011;8196;49.428;10.906;2022-08-05T04:35:37;3.95;;;3.55;;
16179;SDS011;8196;49.428;10.906;2022-08-05T04:38:24;6.28;;;4.25;;
16179;SDS011;8196;49.428;10.906;2022-08-05T04:41:05;4.50;;;4.05;;
16179;SDS011;8196;49.428;10.906;2022-08-05T04:43:35;4.82;;;4.10;;
16179;SDS011;8196;49.428;10.906;2022-08-05T04:46:13;4.60;;;4.20;;
16179;SDS011;8196;49.428;10.906;2022-08-05T04:48:53;6.18;;;4.55;;
16179;SDS011;8196;49.428;10.906;2022-08-05T04:51:24;5.22;;;4.13;;
16179;SDS011;8196;49.428;10.906;2022-08-05T04:53:55;5.38;;;4.20;;
16179;SDS011;8196;49.428;10.906;2022-08-05T04:56:22;4.40;;;4.00;;
16179;SDS011;8196;49.428;10.906;2022-08-05T04:59:02;5.07;;;4.57;;
16179;SDS011;8196;49.428;10.906;2022-08-05T05:01:49;5.70;;;4.13;;
16179;SDS011;8196;49.428;10.906;2022-08-05T05:04:37;4.50;;;3.90;;
16179;SDS011;8196;49.428;10.906;2022-08-05T05:07:13;4.85;;;3.70;;
16179;SDS011;8196;49.428;10.906;2022-08-05T05:09:42;4.35;;;3.95;;
16179;SDS011;8196;49.428;10.906;2022-08-05T05:12:10;5.53;;;3.60;;
16179;SDS011;8196;49.428;10.906;2022-08-05T05:14:38;4.65;;;3.58;;
16179;SDS011;8196;49.428;10.906;2022-08-05T05:17:14;4.95;;;3.40;;
16179;SDS011;8196;49.428;10.906;2022-08-05T05:19:51;4.97;;;3.60;;
16179;SDS011;8196;49.428;10.906;2022-08-05T05:22:19;5.72;;;3.90;;
16179;SDS011;8196;49.428;10.906;2022-08-05T05:24:50;4.43;;;3.70;;
16179;SDS011;8196;49.428;10.906;2022-08-05T05:27:26;4.40;;;3.38;;
16179;SDS011;8196;49.428;10.906;2022-08-05T05:30:12;4.25;;;3.50;;
16179;SDS011;8196;49.428;10.906;2022-08-05T05:32:53;4.63;;;3.10;;
16179;SDS011;8196;49.428;10.906;2022-08-05T05:35:21;3.67;;;2.60;;
16179;SDS011;8196;49.428;10.906;2022-08-05T05:37:48;4.35;;;2.80;;
16179;SDS011;8196;49.428;10.906;2022-08-05T05:40:26;3.22;;;2.92;;
16179;SDS011;8196;49.428;10.906;2022-08-05T05:42:55;4.22;;;2.88;;
16179;SDS011;8196;49.428;10.906;2022-08-05T05:45:22;5.45;;;2.90;;
16179;SDS011;8196;49.428;10.906;2022-08-05T05:47:50;3.20;;;2.60;;
16179;SDS011;8196;49.428;10.906;2022-08-05T05:50:33;3.30;;;2.75;;
16179;SDS011;8196;49.428;10.906;2022-08-05T05:53:10;2.95;;;2.75;;
16179;SDS011;8196;49.428;10.906;2022-08-05T05:55:48;5.93;;;3.45;;
16179;SDS011;8196;49.428;10.906;2022-08-05T05:58:26;5.68;;;3.47;;
16179;SDS011;8196;49.428;10.906;2022-08-05T06:00:57;2.80;;;2.60;;
16179;SDS011;8196;49.428;10.906;2022-08-05T06:03:37;4.38;;;3.33;;
16179;SDS011;8196;49.428;10.906;2022-08-05T06:06:25;3.60;;;3.22;;
16179;SDS011;8196;49.428;10.906;2022-08-05T06:08:56;4.10;;;3.63;;
16179;SDS011;8196;49.428;10.906;2022-08-05T06:11:23;3.30;;;2.88;;
16179;SDS011;8196;49.428;10.906;2022-08-05T06:13:53;6.25;;;3.20;;
16179;SDS011;8196;49.428;10.906;2022-08-05T06:16:21;2.80;;;2.60;;
16179;SDS011;8196;49.428;10.906;2022-08-05T06:18:56;3.00;;;2.70;;
16179;SDS011;8196;49.428;10.906;2022-08-05T06:21:27;2.90;;;2.63;;
16179;SDS011;8196;49.428;10.906;2022-08-05T06:26:31;4.13;;;2.92;;
16179;SDS011;8196;49.428;10.906;2022-08-05T06:29:00;3.45;;;2.70;;
16179;SDS011;8196;49.428;10.906;2022-08-05T06:31:28;11.50;;;6.22;;
16179;SDS011;8196;49.428;10.906;2022-08-05T06:33:58;7.38;;;4.80;;
16179;SDS011;8196;49.428;10.906;2022-08-05T06:36:33;4.03;;;3.28;;
16179;SDS011;8196;49.428;10.906;2022-08-05T06:39:20;4.73;;;3.33;;
16179;SDS011;8196;49.428;10.906;2022-08-05T06:41:49;6.10;;;3.42;;
16179;SDS011;8196;49.428;10.906;2022-08-05T06:44:17;4.22;;;3.35;;
16179;SDS011;8196;49.428;10.906;2022-08-05T06:46:47;2.88;;;2.55;;
16179;SDS011;8196;49.428;10.906;2022-08-05T06:49:16;3.95;;;3.05;;
16179;SDS011;8196;49.428;10.906;2022-08-05T06:51:46;4.43;;;2.92;;
16179;SDS011;8196;49.428;10.906;2022-08-05T06:54:13;5.45;;;2.83;;
16179;SDS011;8196;49.428;10.906;2022-08-05T06:56:44;6.18;;;2.80;;
16179;SDS011;8196;49.428;10.906;2022-08-05T06:59:31;4.70;;;2.80;;
16179;SDS011;8196;49.428;10.906;2022-08-05T07:02:04;3.30;;;2.45;;
16179;SDS011;8196;49.428;10.906;2022-08-05T07:04:31;3.55;;;2.47;;
16179;SDS011;8196;49.428;10.906;2022-08-05T07:07:01;5.70;;;2.67;;
16179;SDS011;8196;49.428;10.906;2022-08-05T07:09:33;5.20;;;2.83;;
16179;SDS011;8196;49.428;10.906;2022-08-05T07:14:33;3.20;;;2.40;;
16179;SDS011;8196;49.428;10.906;2022-08-05T07:17:25;2.95;;;2.55;;
16179;SDS011;8196;49.428;10.906;2022-08-05T07:20:14;3.45;;;2.40;;
16179;SDS011;8196;49.428;10.906;2022-08-05T07:22:59;3.97;;;2.50;;
16179;SDS011;8196;49.428;10.906;2022-08-05T07:25:29;4.43;;;2.80;;
16179;SDS011;8196;49.428;10.906;2022-08-05T07:28:16;3.55;;;2.60;;
16179;SDS011;8196;49.428;10.906;2022-08-05T07:30:44;3.47;;;2.42;;
16179;SDS011;8196;49.428;10.906;2022-08-05T07:33:19;3.85;;;2.60;;
16179;SDS011;8196;49.428;10.906;2022-08-05T07:36:02;4.68;;;2.30;;
16179;SDS011;8196;49.428;10.906;2022-08-05T07:38:46;2.67;;;2.40;;
16179;SDS011;8196;49.428;10.906;2022-08-05T07:41:15;2.87;;;2.37;;
16179;SDS011;8196;49.428;10.906;2022-08-05T07:44:05;4.13;;;2.53;;
16179;SDS011;8196;49.428;10.906;2022-08-05T07:46:43;3.53;;;2.60;;
16179;SDS011;8196;49.428;10.906;2022-08-05T07:49:15;3.78;;;2.50;;
16179;SDS011;8196;49.428;10.906;2022-08-05T07:51:43;2.90;;;2.20;;
16179;SDS011;8196;49.428;10.906;2022-08-05T07:54:19;4.23;;;2.40;;
16179;SDS011;8196;49.428;10.906;2022-08-05T07:56:55;3.20;;;2.40;;
16179;SDS011;8196;49.428;10.906;2022-08-05T07:59:42;3.63;;;2.55;;
16179;SDS011;8196;49.428;10.906;2022-08-05T08:02:13;2.53;;;2.33;;
16179;SDS011;8196;49.428;10.906;2022-08-05T08:04:43;4.18;;;2.50;;
16179;SDS011;8196;49.428;10.906;2022-08-05T08:07:12;3.50;;;2.37;;
16179;SDS011;8196;49.428;10.906;2022-08-05T08:09:47;3.13;;;2.33;;
16179;SDS011;8196;49.428;10.906;2022-08-05T08:12:18;3.97;;;2.80;;
16179;SDS011;8196;49.428;10.906;2022-08-05T08:15:05;3.20;;;2.50;;
16179;SDS011;8196;49.428;10.906;2022-08-05T08:17:41;3.10;;;2.42;;
16179;SDS011;8196;49.428;10.906;2022-08-05T08:20:18;3.15;;;2.80;;
16179;SDS011;8196;49.428;10.906;2022-08-05T08:23:06;4.03;;;2.60;;
16179;SDS011;8196;49.428;10.906;2022-08-05T08:25:53;4.63;;;2.72;;
16179;SDS011;8196;49.428;10.906;2022-08-05T08:28:27;2.97;;;2.25;;
16179;SDS011;8196;49.428;10.906;2022-08-05T08:31:15;3.08;;;2.50;;
16179;SDS011;8196;49.428;10.906;2022-08-05T08:33:44;3.65;;;2.58;;
16179;SDS011;8196;49.428;10.906;2022-08-05T08:36:16;3.63;;;2.57;;
16179;SDS011;8196;49.428;10.906;2022-08-05T08:39:04;2.42;;;2.22;;
16179;SDS011;8196;49.428;10.906;2022-08-05T08:41:41;4.00;;;2.30;;
16179;SDS011;8196;49.428;10.906;2022-08-05T08:44:24;3.00;;;2.50;;
16179;SDS011;8196;49.428;10.906;2022-08-05T08:47:11;2.77;;;2.17;;
16179;SDS011;8196;49.428;10.906;2022-08-05T08:50:00;3.50;;;1.90;;
16179;SDS011;8196;49.428;10.906;2022-08-05T08:52:50;4.75;;;2.50;;
16179;SDS011;8196;49.428;10.906;2022-08-05T08:55:19;4.13;;;2.40;;
16179;SDS011;8196;49.428;10.906;2022-08-05T08:58:06;3.33;;;2.28;;
16179;SDS011;8196;49.428;10.906;2022-08-05T09:00:33;4.00;;;2.03;;
16179;SDS011;8196;49.428;10.906;2022-08-05T09:03:03;2.13;;;1.92;;
16179;SDS011;8196;49.428;10.906;2022-08-05T09:05:31;2.17;;;1.97;;
16179;SDS011;8196;49.428;10.906;2022-08-05T09:08:19;3.63;;;1.95;;
16179;SDS011;8196;49.428;10.906;2022-08-05T09:10:52;1.92;;;1.73;;
16179;SDS011;8196;49.428;10.906;2022-08-05T09:13:19;3.78;;;1.70;;
16179;SDS011;8196;49.428;10.906;2022-08-05T09:15:49;2.42;;;1.70;;
16179;SDS011;8196;49.428;10.906;2022-08-05T09:18:16;2.50;;;1.60;;
16179;SDS011;8196;49.428;10.906;2022-08-05T09:20:44;2.15;;;1.60;;
16179;SDS011;8196;49.428;10.906;2022-08-05T09:23:13;2.10;;;1.73;;
16179;SDS011;8196;49.428;10.906;2022-08-05T09:25:46;3.70;;;1.80;;
16179;SDS011;8196;49.428;10.906;2022-08-05T09:28:29;2.83;;;1.60;;
16179;SDS011;8196;49.428;10.906;2022-08-05T09:33:50;1.80;;;1.70;;
16179;SDS011;8196;49.428;10.906;2022-08-05T09:36:18;1.60;;;1.50;;
16179;SDS011;8196;49.428;10.906;2022-08-05T09:41:24;2.33;;;1.60;;
16179;SDS011;8196;49.428;10.906;2022-08-05T09:43:57;2.37;;;1.50;;
16179;SDS011;8196;49.428;10.906;2022-08-05T09:46:26;1.90;;;1.80;;
16179;SDS011;8196;49.428;10.906;2022-08-05T09:48:55;2.30;;;1.60;;
16179;SDS011;8196;49.428;10.906;2022-08-05T09:51:34;2.70;;;1.70;;
16179;SDS011;8196;49.428;10.906;2022-08-05T09:54:05;2.00;;;1.80;;
16179;SDS011;8196;49.428;10.906;2022-08-05T09:56:35;1.67;;;1.58;;
16179;SDS011;8196;49.428;10.906;2022-08-05T10:01:31;2.10;;;1.70;;
16179;SDS011;8196;49.428;10.906;2022-08-05T10:04:01;1.90;;;1.65;;
16179;SDS011;8196;49.428;10.906;2022-08-05T10:06:36;1.87;;;1.77;;
16179;SDS011;8196;49.428;10.906;2022-08-05T10:09:14;1.70;;;1.60;;
16179;SDS011;8196;49.428;10.906;2022-08-05T10:12:05;1.90;;;1.70;;
16179;SDS011;8196;49.428;10.906;2022-08-05T10:14:55;2.33;;;1.80;;
16179;SDS011;8196;49.428;10.906;2022-08-05T10:17:41;1.90;;;1.70;;
16179;SDS011;8196;49.428;10.906;2022-08-05T10:20:21;3.80;;;1.80;;
16179;SDS011;8196;49.428;10.906;2022-08-05T10:22:50;1.92;;;1.67;;
16179;SDS011;8196;49.428;10.906;2022-08-05T10:25:17;1.80;;;1.70;;
16179;SDS011;8196;49.428;10.906;2022-08-05T10:27:45;2.30;;;1.60;;
16179;SDS011;8196;49.428;10.906;2022-08-05T10:30:33;1.90;;;1.77;;
16179;SDS011;8196;49.428;10.906;2022-08-05T10:33:22;1.80;;;1.70;;
16179;SDS011;8196;49.428;10.906;2022-08-05T10:35:54;2.30;;;1.80;;
16179;SDS011;8196;49.428;10.906;2022-08-05T10:38:26;2.85;;;1.70;;
16179;SDS011;8196;49.428;10.906;2022-08-05T10:43:51;2.28;;;1.70;;
16179;SDS011;8196;49.428;10.906;2022-08-05T10:46:20;2.40;;;1.90;;
16179;SDS011;8196;49.428;10.906;2022-08-05T10:48:49;2.25;;;1.80;;
16179;SDS011;8196;49.428;10.906;2022-08-05T10:51:44;1.83;;;1.65;;
16179;SDS011;8196;49.428;10.906;2022-08-05T10:54:43;2.63;;;2.13;;
16179;SDS011;8196;49.428;10.906;2022-08-05T10:57:25;1.70;;;1.60;;
16179;SDS011;8196;49.428;10.906;2022-08-05T11:03:09;2.35;;;1.80;;
16179;SDS011;8196;49.428;10.906;2022-08-05T11:06:08;1.80;;;1.70;;
16179;SDS011;8196;49.428;10.906;2022-08-05T11:09:17;2.20;;;2.00;;
16179;SDS011;8196;49.428;10.906;2022-08-05T11:11:35;1.95;;;1.83;;
16179;SDS011;8196;49.428;10.906;2022-08-05T11:14:33;2.00;;;1.90;;
16179;SDS011;8196;49.428;10.906;2022-08-05T11:23:00;2.00;;;1.90;;
16179;SDS011;8196;49.428;10.906;2022-08-05T11:36:12;1.90;;;1.80;;
16179;SDS011;8196;49.428;10.906;2022-08-05T11:41:17;2.40;;;2.00;;
16179;SDS011;8196;49.428;10.906;2022-08-05T11:49:24;1.90;;;1.80;;
16179;SDS011;8196;49.428;10.906;2022-08-05T11:51:51;2.13;;;1.80;;
16179;SDS011;8196;49.428;10.906;2022-08-05T11:54:20;2.97;;;1.80;;
16179;SDS011;8196;49.428;10.906;2022-08-05T11:56:59;2.17;;;1.77;;
16179;SDS011;8196;49.428;10.906;2022-08-05T11:59:34;2.28;;;1.77;;
16179;SDS011;8196;49.428;10.906;2022-08-05T12:02:15;2.10;;;1.50;;
16179;SDS011;8196;49.428;10.906;2022-08-05T12:04:57;1.65;;;1.55;;
16179;SDS011;8196;49.428;10.906;2022-08-05T12:10:12;3.40;;;1.83;;
16179;SDS011;8196;49.428;10.906;2022-08-05T12:12:44;2.00;;;1.90;;
16179;SDS011;8196;49.428;10.906;2022-08-05T12:15:25;2.13;;;1.98;;
16179;SDS011;8196;49.428;10.906;2022-08-05T12:18:04;2.20;;;2.00;;
16179;SDS011;8196;49.428;10.906;2022-08-05T12:20:37;2.15;;;1.95;;
16179;SDS011;8196;49.428;10.906;2022-08-05T12:23:08;2.60;;;2.50;;
16179;SDS011;8196;49.428;10.906;2022-08-05T12:25:51;2.33;;;2.22;;
16179;SDS011;8196;49.428;10.906;2022-08-05T12:28:37;2.43;;;2.30;;
16179;SDS011;8196;49.428;10.906;2022-08-05T12:31:05;2.55;;;2.20;;
16179;SDS011;8196;49.428;10.906;2022-08-05T12:33:33;2.25;;;2.10;;
16179;SDS011;8196;49.428;10.906;2022-08-05T12:36:02;2.40;;;2.20;;
16179;SDS011;8196;49.428;10.906;2022-08-05T12:38:33;2.85;;;2.50;;
16179;SDS011;8196;49.428;10.906;2022-08-05T12:41:02;2.57;;;2.37;;
16179;SDS011;8196;49.428;10.906;2022-08-05T12:43:29;2.83;;;2.60;;
16179;SDS011;8196;49.428;10.906;2022-08-05T12:45:57;2.45;;;2.25;;
16179;SDS011;8196;49.428;10.906;2022-08-05T12:48:24;2.70;;;2.50;;
16179;SDS011;8196;49.428;10.906;2022-08-05T12:51:10;3.00;;;2.60;;
16179;SDS011;8196;49.428;10.906;2022-08-05T12:53:58;2.47;;;2.28;;
16179;SDS011;8196;49.428;10.906;2022-08-05T12:56:27;2.60;;;2.40;;
16179;SDS011;8196;49.428;10.906;2022-08-05T12:59:19;2.72;;;2.30;;
16179;SDS011;8196;49.428;10.906;2022-08-05T13:02:06;2.35;;;2.15;;
16179;SDS011;8196;49.428;10.906;2022-08-05T13:04:37;3.03;;;2.35;;
16179;SDS011;8196;49.428;10.906;2022-08-05T13:07:18;2.30;;;2.10;;
16179;SDS011;8196;49.428;10.906;2022-08-05T13:10:09;2.28;;;2.17;;
16179;SDS011;8196;49.428;10.906;2022-08-05T13:12:38;2.40;;;2.20;;
16179;SDS011;8196;49.428;10.906;2022-08-05T13:15:27;2.58;;;2.20;;
16179;SDS011;8196;49.428;10.906;2022-08-05T13:18:15;4.00;;;2.00;;
16179;SDS011;8196;49.428;10.906;2022-08-05T13:20:45;2.20;;;2.10;;
16179;SDS011;8196;49.428;10.906;2022-08-05T13:23:15;2.40;;;2.30;;
16179;SDS011;8196;49.428;10.906;2022-08-05T13:25:47;2.47;;;2.28;;
16179;SDS011;8196;49.428;10.906;2022-08-05T13:28:25;2.33;;;2.13;;
16179;SDS011;8196;49.428;10.906;2022-08-05T13:30:52;2.50;;;2.40;;
16179;SDS011;8196;49.428;10.906;2022-08-05T13:33:20;3.13;;;2.30;;
16179;SDS011;8196;49.428;10.906;2022-08-05T13:36:07;2.67;;;2.47;;
16179;SDS011;8196;49.428;10.906;2022-08-05T13:38:35;2.63;;;2.43;;
16179;SDS011;8196;49.428;10.906;2022-08-05T13:41:08;2.42;;;2.30;;
16179;SDS011;8196;49.428;10.906;2022-08-05T13:43:36;2.45;;;2.20;;
16179;SDS011;8196;49.428;10.906;2022-08-05T13:46:19;2.60;;;2.47;;
16179;SDS011;8196;49.428;10.906;2022-08-05T13:49:06;2.53;;;2.40;;
16179;SDS011;8196;49.428;10.906;2022-08-05T13:51:36;2.53;;;2.40;;
16179;SDS011;8196;49.428;10.906;2022-08-05T13:54:07;2.58;;;2.38;;
16179;SDS011;8196;49.428;10.906;2022-08-05T13:56:38;2.75;;;2.55;;
16179;SDS011;8196;49.428;10.906;2022-08-05T13:59:20;3.10;;;2.40;;
16179;SDS011;8196;49.428;10.906;2022-08-05T14:01:53;3.10;;;2.60;;
16179;SDS011;8196;49.428;10.906;2022-08-05T14:04:25;2.80;;;2.60;;
16179;SDS011;8196;49.428;10.906;2022-08-05T14:07:17;2.97;;;2.78;;
16179;SDS011;8196;49.428;10.906;2022-08-05T14:10:05;3.22;;;2.50;;
16179;SDS011;8196;49.428;10.906;2022-08-05T14:12:33;2.75;;;2.38;;
16179;SDS011;8196;49.428;10.906;2022-08-05T14:15:01;2.80;;;2.60;;
16179;SDS011;8196;49.428;10.906;2022-08-05T14:17:49;3.70;;;2.27;;
16179;SDS011;8196;49.428;10.906;2022-08-05T14:20:20;2.40;;;2.20;;
16179;SDS011;8196;49.428;10.906;2022-08-05T14:22:53;2.20;;;2.05;;
16179;SDS011;8196;49.428;10.906;2022-08-05T14:25:21;2.92;;;2.42;;
16179;SDS011;8196;49.428;10.906;2022-08-05T14:27:53;3.10;;;2.38;;
16179;SDS011;8196;49.428;10.906;2022-08-05T14:30:21;2.72;;;2.53;;
16179;SDS011;8196;49.428;10.906;2022-08-05T14:32:52;2.45;;;2.25;;
16179;SDS011;8196;49.428;10.906;2022-08-05T14:35:21;2.23;;;2.13;;
16179;SDS011;8196;49.428;10.906;2022-08-05T14:38:02;2.72;;;2.10;;
16179;SDS011;8196;49.428;10.906;2022-08-05T14:40:29;2.33;;;2.03;;
16179;SDS011;8196;49.428;10.906;2022-08-05T14:42:59;3.27;;;1.73;;
16179;SDS011;8196;49.428;10.906;2022-08-05T14:45:26;1.95;;;1.70;;
16179;SDS011;8196;49.428;10.906;2022-08-05T14:47:56;2.20;;;1.70;;
16179;SDS011;8196;49.428;10.906;2022-08-05T14:50:31;3.08;;;1.90;;
16179;SDS011;8196;49.428;10.906;2022-08-05T14:53:05;2.33;;;1.80;;
16179;SDS011;8196;49.428;10.906;2022-08-05T14:55:33;1.90;;;1.80;;
16179;SDS011;8196;49.428;10.906;2022-08-05T14:58:05;2.00;;;1.90;;
16179;SDS011;8196;49.428;10.906;2022-08-05T15:00:37;2.72;;;2.05;;
16179;SDS011;8196;49.428;10.906;2022-08-05T15:03:26;1.90;;;1.70;;
16179;SDS011;8196;49.428;10.906;2022-08-05T15:06:04;2.20;;;1.95;;
16179;SDS011;8196;49.428;10.906;2022-08-05T15:08:40;3.85;;;1.70;;
16179;SDS011;8196;49.428;10.906;2022-08-05T15:11:27;3.70;;;1.67;;
16179;SDS011;8196;49.428;10.906;2022-08-05T15:14:14;2.00;;;1.77;;
16179;SDS011;8196;49.428;10.906;2022-08-05T15:16:59;1.70;;;1.60;;
16179;SDS011;8196;49.428;10.906;2022-08-05T15:19:26;2.15;;;1.83;;
16179;SDS011;8196;49.428;10.906;2022-08-05T15:21:55;1.70;;;1.60;;
16179;SDS011;8196;49.428;10.906;2022-08-05T15:24:25;1.90;;;1.70;;
16179;SDS011;8196;49.428;10.906;2022-08-05T15:26:52;3.60;;;1.65;;
16179;SDS011;8196;49.428;10.906;2022-08-05T15:29:21;3.13;;;1.80;;
16179;SDS011;8196;49.428;10.906;2022-08-05T15:31:48;1.92;;;1.50;;
16179;SDS011;8196;49.428;10.906;2022-08-05T15:34:18;2.33;;;1.80;;
16179;SDS011;8196;49.428;10.906;2022-08-05T15:36:58;3.65;;;1.60;;
16179;SDS011;8196;49.428;10.906;2022-08-05T15:39:31;1.73;;;1.60;;
16179;SDS011;8196;49.428;10.906;2022-08-05T15:42:19;1.95;;;1.70;;
16179;SDS011;8196;49.428;10.906;2022-08-05T15:45:06;4.40;;;1.80;;
16179;SDS011;8196;49.428;10.906;2022-08-05T15:47:36;2.25;;;2.00;;
16179;SDS011;8196;49.428;10.906;2022-08-05T15:50:04;2.85;;;1.73;;
16179;SDS011;8196;49.428;10.906;2022-08-05T15:52:32;2.45;;;1.85;;
16179;SDS011;8196;49.428;10.906;2022-08-05T15:55:20;1.92;;;1.83;;
16179;SDS011;8196;49.428;10.906;2022-08-05T15:57:50;3.17;;;1.95;;
16179;SDS011;8196;49.428;10.906;2022-08-05T16:00:17;2.45;;;1.85;;
16179;SDS011;8196;49.428;10.906;2022-08-05T16:02:58;2.10;;;1.92;;
16179;SDS011;8196;49.428;10.906;2022-08-05T16:05:25;2.78;;;1.90;;
16179;SDS011;8196;49.428;10.906;2022-08-05T16:07:53;1.95;;;1.83;;
16179;SDS011;8196;49.428;10.906;2022-08-05T16:10:22;2.03;;;1.83;;
16179;SDS011;8196;49.428;10.906;2022-08-05T16:12:52;2.03;;;1.83;;
16179;SDS011;8196;49.428;10.906;2022-08-05T16:15:21;3.60;;;2.05;;
16179;SDS011;8196;49.428;10.906;2022-08-05T16:17:48;2.53;;;1.90;;
16179;SDS011;8196;49.428;10.906;2022-08-05T16:20:23;2.30;;;1.80;;
16179;SDS011;8196;49.428;10.906;2022-08-05T16:22:53;2.80;;;2.10;;
16179;SDS011;8196;49.428;10.906;2022-08-05T16:25:22;2.38;;;2.00;;
16179;SDS011;8196;49.428;10.906;2022-08-05T16:28:00;2.45;;;2.00;;
16179;SDS011;8196;49.428;10.906;2022-08-05T16:30:32;2.50;;;2.00;;
16179;SDS011;8196;49.428;10.906;2022-08-05T16:33:01;2.33;;;2.13;;
16179;SDS011;8196;49.428;10.906;2022-08-05T16:35:29;3.35;;;2.05;;
16179;SDS011;8196;49.428;10.906;2022-08-05T16:38:03;3.00;;;1.93;;